sensor_id;sensor_type;location;lat;lon;timestamp;P1;durP1;ratioP1;P2;durP2;ratioP2
76786;SDS011;65739;51.482;5.702;2023-03-12T00:05:49;7.15;;;2.75;;
76786;SDS011;65739;51.482;5.702;2023-03-12T00:08:29;7.53;;;3.13;;
76786;SDS011;65739;51.482;5.702;2023-03-12T00:10:58;7.03;;;2.80;;
76786;SDS011;65739;51.482;5.702;2023-03-12T00:13:41;7.72;;;3.15;;
76786;SDS011;65739;51.482;5.702;2023-03-12T00:19:28;10.40;;;3.03;;
76786;SDS011;65739;51.482;5.702;2023-03-12T00:22:59;6.50;;;2.58;;
76786;SDS011;65739;51.482;5.702;2023-03-12T00:25:39;9.60;;;2.65;;
76786;SDS011;65739;51.482;5.702;2023-03-12T00:28:35;8.55;;;2.63;;
76786;SDS011;65739;51.482;5.702;2023-03-12T00:31:54;9.25;;;2.90;;
76786;SDS011;65739;51.482;5.702;2023-03-12T00:34:34;5.20;;;2.70;;
76786;SDS011;65739;51.482;5.702;2023-03-12T00:37:40;4.38;;;2.42;;
76786;SDS011;65739;51.482;5.702;2023-03-12T00:40:15;6.95;;;2.72;;
76786;SDS011;65739;51.482;5.702;2023-03-12T00:43:01;5.20;;;2.65;;
76786;SDS011;65739;51.482;5.702;2023-03-12T00:45:32;10.70;;;2.85;;
76786;SDS011;65739;51.482;5.702;2023-03-12T00:48:21;4.72;;;2.67;;
76786;SDS011;65739;51.482;5.702;2023-03-12T00:51:07;6.38;;;2.47;;
76786;SDS011;65739;51.482;5.702;2023-03-12T00:54:00;7.45;;;2.83;;
76786;SDS011;65739;51.482;5.702;2023-03-12T00:56:34;5.70;;;3.10;;
76786;SDS011;65739;51.482;5.702;2023-03-12T00:59:22;8.82;;;3.65;;
76786;SDS011;65739;51.482;5.702;2023-03-12T01:02:39;5.75;;;2.95;;
76786;SDS011;65739;51.482;5.702;2023-03-12T01:04:49;7.93;;;2.95;;
76786;SDS011;65739;51.482;5.702;2023-03-12T01:07:30;9.02;;;2.72;;
76786;SDS011;65739;51.482;5.702;2023-03-12T01:13:39;4.53;;;2.40;;
76786;SDS011;65739;51.482;5.702;2023-03-12T01:16:10;5.05;;;2.55;;
76786;SDS011;65739;51.482;5.702;2023-03-12T01:21:27;7.18;;;2.60;;
76786;SDS011;65739;51.482;5.702;2023-03-12T01:23:59;6.70;;;2.28;;
76786;SDS011;65739;51.482;5.702;2023-03-12T01:26:25;7.20;;;2.30;;
76786;SDS011;65739;51.482;5.702;2023-03-12T01:29:17;6.47;;;2.58;;
76786;SDS011;65739;51.482;5.702;2023-03-12T01:32:07;5.93;;;2.67;;
76786;SDS011;65739;51.482;5.702;2023-03-12T01:34:42;7.13;;;2.60;;
76786;SDS011;65739;51.482;5.702;2023-03-12T01:37:18;3.72;;;2.60;;
76786;SDS011;65739;51.482;5.702;2023-03-12T01:39:47;4.25;;;2.50;;
76786;SDS011;65739;51.482;5.702;2023-03-12T01:45:50;5.90;;;2.35;;
76786;SDS011;65739;51.482;5.702;2023-03-12T01:48:10;6.30;;;2.28;;
76786;SDS011;65739;51.482;5.702;2023-03-12T01:50:42;10.57;;;2.70;;
76786;SDS011;65739;51.482;5.702;2023-03-12T01:53:50;5.75;;;2.60;;
76786;SDS011;65739;51.482;5.702;2023-03-12T01:56:39;6.95;;;2.92;;
76786;SDS011;65739;51.482;5.702;2023-03-12T01:59:15;5.68;;;2.50;;
76786;SDS011;65739;51.482;5.702;2023-03-12T02:02:22;6.47;;;2.28;;
76786;SDS011;65739;51.482;5.702;2023-03-12T02:05:02;7.25;;;2.78;;
76786;SDS011;65739;51.482;5.702;2023-03-12T02:07:38;6.95;;;2.67;;
76786;SDS011;65739;51.482;5.702;2023-03-12T02:10:07;8.40;;;2.53;;
76786;SDS011;65739;51.482;5.702;2023-03-12T02:12:39;3.05;;;2.28;;
76786;SDS011;65739;51.482;5.702;2023-03-12T02:15:38;6.72;;;2.40;;
76786;SDS011;65739;51.482;5.702;2023-03-12T02:21:38;5.40;;;2.28;;
76786;SDS011;65739;51.482;5.702;2023-03-12T02:27:26;8.65;;;2.35;;
76786;SDS011;65739;51.482;5.702;2023-03-12T02:30:01;6.05;;;2.70;;
76786;SDS011;65739;51.482;5.702;2023-03-12T02:32:32;5.38;;;2.50;;
76786;SDS011;65739;51.482;5.702;2023-03-12T02:37:51;4.13;;;2.53;;
76786;SDS011;65739;51.482;5.702;2023-03-12T02:40:33;4.97;;;2.53;;
76786;SDS011;65739;51.482;5.702;2023-03-12T02:43:06;8.52;;;3.10;;
76786;SDS011;65739;51.482;5.702;2023-03-12T02:45:43;6.95;;;2.78;;
76786;SDS011;65739;51.482;5.702;2023-03-12T02:48:12;6.22;;;2.72;;
76786;SDS011;65739;51.482;5.702;2023-03-12T02:50:47;8.52;;;2.90;;
76786;SDS011;65739;51.482;5.702;2023-03-12T02:53:31;10.02;;;3.00;;
76786;SDS011;65739;51.482;5.702;2023-03-12T02:56:02;5.80;;;2.60;;
76786;SDS011;65739;51.482;5.702;2023-03-12T02:59:11;6.82;;;2.83;;
76786;SDS011;65739;51.482;5.702;2023-03-12T03:01:46;6.68;;;2.63;;
76786;SDS011;65739;51.482;5.702;2023-03-12T03:04:16;7.53;;;2.80;;
76786;SDS011;65739;51.482;5.702;2023-03-12T03:06:50;6.97;;;3.45;;
76786;SDS011;65739;51.482;5.702;2023-03-12T03:09:19;6.95;;;2.80;;
76786;SDS011;65739;51.482;5.702;2023-03-12T03:11:48;6.22;;;2.88;;
76786;SDS011;65739;51.482;5.702;2023-03-12T03:14:26;8.45;;;3.40;;
76786;SDS011;65739;51.482;5.702;2023-03-12T03:16:52;7.20;;;2.95;;
76786;SDS011;65739;51.482;5.702;2023-03-12T03:19:49;5.57;;;2.75;;
76786;SDS011;65739;51.482;5.702;2023-03-12T03:22:43;6.53;;;3.13;;
76786;SDS011;65739;51.482;5.702;2023-03-12T03:25:35;7.72;;;2.92;;
76786;SDS011;65739;51.482;5.702;2023-03-12T03:28:00;12.57;;;3.65;;
76786;SDS011;65739;51.482;5.702;2023-03-12T03:30:28;9.20;;;3.35;;
76786;SDS011;65739;51.482;5.702;2023-03-12T03:32:57;7.32;;;2.80;;
76786;SDS011;65739;51.482;5.702;2023-03-12T03:35:47;6.72;;;3.15;;
76786;SDS011;65739;51.482;5.702;2023-03-12T03:38:24;7.80;;;3.22;;
76786;SDS011;65739;51.482;5.702;2023-03-12T03:41:37;4.30;;;3.08;;
76786;SDS011;65739;51.482;5.702;2023-03-12T03:44:15;11.43;;;3.22;;
76786;SDS011;65739;51.482;5.702;2023-03-12T03:49:20;6.78;;;3.22;;
76786;SDS011;65739;51.482;5.702;2023-03-12T03:51:49;8.32;;;3.55;;
76786;SDS011;65739;51.482;5.702;2023-03-12T03:54:24;8.15;;;3.55;;
76786;SDS011;65739;51.482;5.702;2023-03-12T03:57:02;7.07;;;3.15;;
76786;SDS011;65739;51.482;5.702;2023-03-12T04:02:43;6.05;;;2.97;;
76786;SDS011;65739;51.482;5.702;2023-03-12T04:05:44;6.90;;;3.30;;
76786;SDS011;65739;51.482;5.702;2023-03-12T04:08:36;8.80;;;3.28;;
76786;SDS011;65739;51.482;5.702;2023-03-12T04:11:19;6.18;;;3.33;;
76786;SDS011;65739;51.482;5.702;2023-03-12T04:13:49;6.68;;;3.22;;
76786;SDS011;65739;51.482;5.702;2023-03-12T04:16:24;11.75;;;3.35;;
76786;SDS011;65739;51.482;5.702;2023-03-12T04:19:02;8.07;;;3.08;;
76786;SDS011;65739;51.482;5.702;2023-03-12T04:21:58;9.63;;;2.78;;
76786;SDS011;65739;51.482;5.702;2023-03-12T04:24:47;9.88;;;3.00;;
76786;SDS011;65739;51.482;5.702;2023-03-12T04:27:45;6.53;;;2.85;;
76786;SDS011;65739;51.482;5.702;2023-03-12T04:30:14;8.02;;;2.60;;
76786;SDS011;65739;51.482;5.702;2023-03-12T04:32:40;5.40;;;2.88;;
76786;SDS011;65739;51.482;5.702;2023-03-12T04:35:30;5.97;;;2.67;;
76786;SDS011;65739;51.482;5.702;2023-03-12T04:38:17;4.70;;;2.75;;
76786;SDS011;65739;51.482;5.702;2023-03-12T04:41:13;7.10;;;2.67;;
76786;SDS011;65739;51.482;5.702;2023-03-12T04:44:03;5.10;;;2.88;;
76786;SDS011;65739;51.482;5.702;2023-03-12T04:46:35;7.85;;;2.72;;
76786;SDS011;65739;51.482;5.702;2023-03-12T04:49:02;7.45;;;2.55;;
76786;SDS011;65739;51.482;5.702;2023-03-12T04:51:36;8.10;;;2.70;;
76786;SDS011;65739;51.482;5.702;2023-03-12T04:57:20;6.20;;;2.78;;
76786;SDS011;65739;51.482;5.702;2023-03-12T04:59:52;3.08;;;2.35;;
76786;SDS011;65739;51.482;5.702;2023-03-12T05:05:48;6.13;;;3.00;;
76786;SDS011;65739;51.482;5.702;2023-03-12T05:09:16;6.53;;;2.70;;
76786;SDS011;65739;51.482;5.702;2023-03-12T05:22:08;7.70;;;2.50;;
76786;SDS011;65739;51.482;5.702;2023-03-12T05:25:13;6.43;;;2.55;;
76786;SDS011;65739;51.482;5.702;2023-03-12T05:31:27;7.53;;;2.30;;
76786;SDS011;65739;51.482;5.702;2023-03-12T05:34:46;6.88;;;2.47;;
76786;SDS011;65739;51.482;5.702;2023-03-12T05:36:54;9.20;;;2.40;;
76786;SDS011;65739;51.482;5.702;2023-03-12T05:39:20;9.10;;;2.50;;
76786;SDS011;65739;51.482;5.702;2023-03-12T05:41:53;6.05;;;2.35;;
76786;SDS011;65739;51.482;5.702;2023-03-12T05:44:25;5.40;;;2.53;;
76786;SDS011;65739;51.482;5.702;2023-03-12T05:47:23;3.95;;;2.33;;
76786;SDS011;65739;51.482;5.702;2023-03-12T05:50:35;9.10;;;2.78;;
76786;SDS011;65739;51.482;5.702;2023-03-12T05:53:13;2.60;;;2.33;;
76786;SDS011;65739;51.482;5.702;2023-03-12T05:56:20;5.75;;;2.58;;
76786;SDS011;65739;51.482;5.702;2023-03-12T05:58:46;7.57;;;2.75;;
76786;SDS011;65739;51.482;5.702;2023-03-12T06:01:16;5.80;;;2.63;;
76786;SDS011;65739;51.482;5.702;2023-03-12T06:03:53;6.95;;;2.45;;
76786;SDS011;65739;51.482;5.702;2023-03-12T06:06:28;6.30;;;2.60;;
76786;SDS011;65739;51.482;5.702;2023-03-12T06:09:26;7.00;;;2.65;;
76786;SDS011;65739;51.482;5.702;2023-03-12T06:12:12;5.65;;;2.97;;
76786;SDS011;65739;51.482;5.702;2023-03-12T06:14:48;5.90;;;2.92;;
76786;SDS011;65739;51.482;5.702;2023-03-12T06:17:36;6.60;;;2.90;;
76786;SDS011;65739;51.482;5.702;2023-03-12T06:20:11;8.40;;;2.92;;
76786;SDS011;65739;51.482;5.702;2023-03-12T06:22:41;7.20;;;3.30;;
76786;SDS011;65739;51.482;5.702;2023-03-12T06:25:33;5.53;;;2.78;;
76786;SDS011;65739;51.482;5.702;2023-03-12T06:28:55;9.88;;;3.10;;
76786;SDS011;65739;51.482;5.702;2023-03-12T06:31:53;8.50;;;3.38;;
76786;SDS011;65739;51.482;5.702;2023-03-12T06:34:52;9.32;;;3.13;;
76786;SDS011;65739;51.482;5.702;2023-03-12T06:37:35;8.38;;;3.35;;
76786;SDS011;65739;51.482;5.702;2023-03-12T06:40:04;8.95;;;3.15;;
76786;SDS011;65739;51.482;5.702;2023-03-12T06:42:34;6.03;;;3.30;;
76786;SDS011;65739;51.482;5.702;2023-03-12T06:45:10;7.25;;;3.30;;
76786;SDS011;65739;51.482;5.702;2023-03-12T06:47:51;9.70;;;3.53;;
76786;SDS011;65739;51.482;5.702;2023-03-12T06:50:17;8.48;;;4.50;;
76786;SDS011;65739;51.482;5.702;2023-03-12T06:52:46;10.95;;;4.50;;
76786;SDS011;65739;51.482;5.702;2023-03-12T06:55:20;11.40;;;4.03;;
76786;SDS011;65739;51.482;5.702;2023-03-12T06:57:49;10.00;;;4.30;;
76786;SDS011;65739;51.482;5.702;2023-03-12T07:00:47;8.65;;;4.53;;
76786;SDS011;65739;51.482;5.702;2023-03-12T07:03:15;14.35;;;4.55;;
76786;SDS011;65739;51.482;5.702;2023-03-12T07:06:19;11.25;;;4.45;;
76786;SDS011;65739;51.482;5.702;2023-03-12T07:09:04;9.23;;;4.85;;
76786;SDS011;65739;51.482;5.702;2023-03-12T07:11:35;11.48;;;4.53;;
76786;SDS011;65739;51.482;5.702;2023-03-12T07:14:10;15.65;;;4.95;;
76786;SDS011;65739;51.482;5.702;2023-03-12T07:16:42;9.93;;;4.75;;
76786;SDS011;65739;51.482;5.702;2023-03-12T07:19:23;8.88;;;5.18;;
76786;SDS011;65739;51.482;5.702;2023-03-12T07:21:59;12.32;;;5.00;;
76786;SDS011;65739;51.482;5.702;2023-03-12T07:24:28;13.00;;;5.32;;
76786;SDS011;65739;51.482;5.702;2023-03-12T07:27:07;11.77;;;5.50;;
76786;SDS011;65739;51.482;5.702;2023-03-12T07:29:55;12.82;;;5.15;;
76786;SDS011;65739;51.482;5.702;2023-03-12T07:32:34;11.85;;;5.47;;
76786;SDS011;65739;51.482;5.702;2023-03-12T07:35:03;10.77;;;5.43;;
76786;SDS011;65739;51.482;5.702;2023-03-12T07:37:34;9.70;;;5.40;;
76786;SDS011;65739;51.482;5.702;2023-03-12T07:40:24;11.10;;;5.20;;
76786;SDS011;65739;51.482;5.702;2023-03-12T07:42:50;13.77;;;5.75;;
76786;SDS011;65739;51.482;5.702;2023-03-12T07:45:20;11.68;;;5.10;;
76786;SDS011;65739;51.482;5.702;2023-03-12T07:47:49;13.95;;;5.18;;
76786;SDS011;65739;51.482;5.702;2023-03-12T07:50:47;12.50;;;5.63;;
76786;SDS011;65739;51.482;5.702;2023-03-12T07:53:28;13.13;;;5.65;;
76786;SDS011;65739;51.482;5.702;2023-03-12T07:56:14;15.25;;;6.30;;
76786;SDS011;65739;51.482;5.702;2023-03-12T07:58:54;11.77;;;6.13;;
76786;SDS011;65739;51.482;5.702;2023-03-12T08:01:48;11.88;;;6.10;;
76786;SDS011;65739;51.482;5.702;2023-03-12T08:04:22;12.70;;;6.35;;
76786;SDS011;65739;51.482;5.702;2023-03-12T08:06:53;10.68;;;6.30;;
76786;SDS011;65739;51.482;5.702;2023-03-12T08:09:22;14.20;;;6.93;;
76786;SDS011;65739;51.482;5.702;2023-03-12T08:11:47;9.63;;;6.53;;
76786;SDS011;65739;51.482;5.702;2023-03-12T08:17:09;12.35;;;6.13;;
76786;SDS011;65739;51.482;5.702;2023-03-12T08:19:38;12.35;;;6.18;;
76786;SDS011;65739;51.482;5.702;2023-03-12T08:22:05;10.57;;;6.72;;
76786;SDS011;65739;51.482;5.702;2023-03-12T08:24:31;11.45;;;6.75;;
76786;SDS011;65739;51.482;5.702;2023-03-12T08:27:00;14.85;;;6.57;;
76786;SDS011;65739;51.482;5.702;2023-03-12T08:29:29;13.82;;;7.50;;
76786;SDS011;65739;51.482;5.702;2023-03-12T08:31:57;15.13;;;8.05;;
76786;SDS011;65739;51.482;5.702;2023-03-12T08:34:26;14.88;;;9.10;;
76786;SDS011;65739;51.482;5.702;2023-03-12T08:36:57;11.52;;;7.50;;
76786;SDS011;65739;51.482;5.702;2023-03-12T08:39:31;8.65;;;6.05;;
76786;SDS011;65739;51.482;5.702;2023-03-12T08:42:05;11.98;;;7.20;;
76786;SDS011;65739;51.482;5.702;2023-03-12T08:44:34;11.27;;;7.28;;
76786;SDS011;65739;51.482;5.702;2023-03-12T08:47:00;15.38;;;7.88;;
76786;SDS011;65739;51.482;5.702;2023-03-12T08:49:29;12.05;;;7.63;;
76786;SDS011;65739;51.482;5.702;2023-03-12T08:52:20;16.13;;;7.65;;
76786;SDS011;65739;51.482;5.702;2023-03-12T08:54:46;13.15;;;8.35;;
76786;SDS011;65739;51.482;5.702;2023-03-12T08:57:17;14.15;;;7.97;;
76786;SDS011;65739;51.482;5.702;2023-03-12T08:59:43;13.02;;;8.23;;
76786;SDS011;65739;51.482;5.702;2023-03-12T09:02:12;13.27;;;7.85;;
76786;SDS011;65739;51.482;5.702;2023-03-12T09:04:38;13.95;;;8.15;;
76786;SDS011;65739;51.482;5.702;2023-03-12T09:07:04;12.85;;;8.18;;
76786;SDS011;65739;51.482;5.702;2023-03-12T09:09:33;13.65;;;8.75;;
76786;SDS011;65739;51.482;5.702;2023-03-12T09:12:00;16.67;;;8.60;;
76786;SDS011;65739;51.482;5.702;2023-03-12T09:14:26;14.05;;;9.90;;
76786;SDS011;65739;51.482;5.702;2023-03-12T09:16:56;15.82;;;10.30;;
76786;SDS011;65739;51.482;5.702;2023-03-12T09:19:22;13.50;;;9.95;;
76786;SDS011;65739;51.482;5.702;2023-03-12T09:21:51;16.50;;;10.23;;
76786;SDS011;65739;51.482;5.702;2023-03-12T09:24:17;19.10;;;11.38;;
76786;SDS011;65739;51.482;5.702;2023-03-12T09:26:46;23.60;;;13.57;;
76786;SDS011;65739;51.482;5.702;2023-03-12T09:29:15;17.88;;;12.10;;
76786;SDS011;65739;51.482;5.702;2023-03-12T09:31:43;18.15;;;11.75;;
76786;SDS011;65739;51.482;5.702;2023-03-12T09:34:09;19.58;;;11.95;;
76786;SDS011;65739;51.482;5.702;2023-03-12T09:36:35;19.42;;;11.52;;
76786;SDS011;65739;51.482;5.702;2023-03-12T09:39:01;17.92;;;11.98;;
76786;SDS011;65739;51.482;5.702;2023-03-12T09:41:28;16.65;;;11.57;;
76786;SDS011;65739;51.482;5.702;2023-03-12T09:44:03;16.23;;;10.65;;
76786;SDS011;65739;51.482;5.702;2023-03-12T09:46:45;18.00;;;12.23;;
76786;SDS011;65739;51.482;5.702;2023-03-12T09:49:58;14.98;;;9.43;;
76786;SDS011;65739;51.482;5.702;2023-03-12T09:55:20;18.45;;;10.93;;
76786;SDS011;65739;51.482;5.702;2023-03-12T09:58:08;19.95;;;11.50;;
76786;SDS011;65739;51.482;5.702;2023-03-12T10:00:49;18.40;;;12.05;;
76786;SDS011;65739;51.482;5.702;2023-03-12T10:11:43;17.83;;;11.55;;
76786;SDS011;65739;51.482;5.702;2023-03-12T10:14:59;18.05;;;10.70;;
76786;SDS011;65739;51.482;5.702;2023-03-12T10:17:41;14.60;;;10.55;;
76786;SDS011;65739;51.482;5.702;2023-03-12T10:23:22;20.65;;;11.65;;
76786;SDS011;65739;51.482;5.702;2023-03-12T10:37:19;18.85;;;11.75;;
76786;SDS011;65739;51.482;5.702;2023-03-12T10:39:47;17.10;;;11.20;;
76786;SDS011;65739;51.482;5.702;2023-03-12T10:42:15;21.52;;;12.15;;
76786;SDS011;65739;51.482;5.702;2023-03-12T10:44:44;22.10;;;12.93;;
76786;SDS011;65739;51.482;5.702;2023-03-12T10:49:51;22.17;;;13.10;;
76786;SDS011;65739;51.482;5.702;2023-03-12T10:52:21;26.67;;;13.25;;
76786;SDS011;65739;51.482;5.702;2023-03-12T10:54:48;25.85;;;14.75;;
76786;SDS011;65739;51.482;5.702;2023-03-12T10:57:15;28.88;;;14.02;;
76786;SDS011;65739;51.482;5.702;2023-03-12T10:59:46;34.22;;;15.98;;
76786;SDS011;65739;51.482;5.702;2023-03-12T11:02:29;31.08;;;14.75;;
76786;SDS011;65739;51.482;5.702;2023-03-12T11:05:17;38.28;;;17.98;;
76786;SDS011;65739;51.482;5.702;2023-03-12T11:07:45;37.60;;;18.05;;
76786;SDS011;65739;51.482;5.702;2023-03-12T11:10:13;34.42;;;15.93;;
76786;SDS011;65739;51.482;5.702;2023-03-12T11:12:50;31.27;;;14.70;;
76786;SDS011;65739;51.482;5.702;2023-03-12T11:23:38;35.53;;;14.35;;
76786;SDS011;65739;51.482;5.702;2023-03-12T11:26:13;35.45;;;15.05;;
76786;SDS011;65739;51.482;5.702;2023-03-12T11:28:45;29.33;;;13.45;;
76786;SDS011;65739;51.482;5.702;2023-03-12T11:32:14;30.80;;;14.45;;
76786;SDS011;65739;51.482;5.702;2023-03-12T11:34:18;29.80;;;14.30;;
76786;SDS011;65739;51.482;5.702;2023-03-12T11:47:35;32.13;;;13.15;;
76786;SDS011;65739;51.482;5.702;2023-03-12T11:53:04;35.83;;;13.95;;
76786;SDS011;65739;51.482;5.702;2023-03-12T11:56:13;29.55;;;14.68;;
76786;SDS011;65739;51.482;5.702;2023-03-12T11:58:55;31.58;;;14.40;;
76786;SDS011;65739;51.482;5.702;2023-03-12T12:15:27;36.40;;;15.18;;
76786;SDS011;65739;51.482;5.702;2023-03-12T12:31:53;38.17;;;13.40;;
76786;SDS011;65739;51.482;5.702;2023-03-12T12:34:34;32.90;;;11.68;;
76786;SDS011;65739;51.482;5.702;2023-03-12T12:37:14;35.28;;;12.07;;
76786;SDS011;65739;51.482;5.702;2023-03-12T12:40:15;23.25;;;10.23;;
76786;SDS011;65739;51.482;5.702;2023-03-12T12:43:01;27.48;;;9.65;;
76786;SDS011;65739;51.482;5.702;2023-03-12T12:45:33;26.58;;;9.50;;
76786;SDS011;65739;51.482;5.702;2023-03-12T12:48:07;28.08;;;9.45;;
76786;SDS011;65739;51.482;5.702;2023-03-12T12:50:41;24.75;;;9.80;;
76786;SDS011;65739;51.482;5.702;2023-03-12T12:53:20;32.20;;;9.65;;
76786;SDS011;65739;51.482;5.702;2023-03-12T12:56:12;27.27;;;9.13;;
76786;SDS011;65739;51.482;5.702;2023-03-12T12:59:04;27.45;;;9.43;;
76786;SDS011;65739;51.482;5.702;2023-03-12T13:01:58;33.25;;;9.70;;
76786;SDS011;65739;51.482;5.702;2023-03-12T13:04:28;23.63;;;8.32;;
76786;SDS011;65739;51.482;5.702;2023-03-12T13:06:59;28.98;;;9.02;;
76786;SDS011;65739;51.482;5.702;2023-03-12T13:09:34;26.20;;;9.30;;
76786;SDS011;65739;51.482;5.702;2023-03-12T13:14:46;29.52;;;7.72;;
76786;SDS011;65739;51.482;5.702;2023-03-12T13:17:26;27.90;;;8.30;;
76786;SDS011;65739;51.482;5.702;2023-03-12T13:19:58;27.30;;;7.75;;
76786;SDS011;65739;51.482;5.702;2023-03-12T13:25:42;27.03;;;6.53;;
76786;SDS011;65739;51.482;5.702;2023-03-12T13:36:43;23.83;;;5.38;;
76786;SDS011;65739;51.482;5.702;2023-03-12T13:41:45;25.02;;;5.25;;
76786;SDS011;65739;51.482;5.702;2023-03-12T13:46:48;23.45;;;5.35;;
76786;SDS011;65739;51.482;5.702;2023-03-12T13:49:21;20.23;;;4.80;;
76786;SDS011;65739;51.482;5.702;2023-03-12T13:51:54;25.42;;;4.85;;
76786;SDS011;65739;51.482;5.702;2023-03-12T13:54:24;23.27;;;4.63;;
76786;SDS011;65739;51.482;5.702;2023-03-12T13:56:57;24.48;;;4.50;;
76786;SDS011;65739;51.482;5.702;2023-03-12T13:59:26;22.40;;;4.50;;
76786;SDS011;65739;51.482;5.702;2023-03-12T14:01:55;25.50;;;4.75;;
76786;SDS011;65739;51.482;5.702;2023-03-12T14:04:24;26.73;;;4.72;;
76786;SDS011;65739;51.482;5.702;2023-03-12T14:07:09;29.38;;;5.18;;
76786;SDS011;65739;51.482;5.702;2023-03-12T14:09:51;23.45;;;4.15;;
76786;SDS011;65739;51.482;5.702;2023-03-12T14:12:41;26.10;;;5.05;;
76786;SDS011;65739;51.482;5.702;2023-03-12T14:18:08;26.85;;;5.03;;
76786;SDS011;65739;51.482;5.702;2023-03-12T14:20:48;30.50;;;6.53;;
76786;SDS011;65739;51.482;5.702;2023-03-12T14:23:23;23.48;;;3.90;;
76786;SDS011;65739;51.482;5.702;2023-03-12T14:25:58;32.63;;;5.07;;
76786;SDS011;65739;51.482;5.702;2023-03-12T14:28:26;22.48;;;3.83;;
76786;SDS011;65739;51.482;5.702;2023-03-12T14:33:43;27.40;;;4.85;;
76786;SDS011;65739;51.482;5.702;2023-03-12T14:36:15;34.42;;;5.95;;
76786;SDS011;65739;51.482;5.702;2023-03-12T14:38:45;29.38;;;5.32;;
76786;SDS011;65739;51.482;5.702;2023-03-12T14:41:20;23.15;;;5.00;;
76786;SDS011;65739;51.482;5.702;2023-03-12T14:43:50;25.65;;;4.00;;
76786;SDS011;65739;51.482;5.702;2023-03-12T14:46:21;31.73;;;5.28;;
76786;SDS011;65739;51.482;5.702;2023-03-12T14:51:18;28.70;;;5.47;;
76786;SDS011;65739;51.482;5.702;2023-03-12T14:53:46;30.65;;;5.97;;
76786;SDS011;65739;51.482;5.702;2023-03-12T14:56:13;27.15;;;5.45;;
76786;SDS011;65739;51.482;5.702;2023-03-12T14:58:48;36.15;;;6.97;;
76786;SDS011;65739;51.482;5.702;2023-03-12T15:01:25;26.23;;;6.13;;
76786;SDS011;65739;51.482;5.702;2023-03-12T15:03:56;28.75;;;5.45;;
76786;SDS011;65739;51.482;5.702;2023-03-12T15:08:58;33.22;;;5.63;;
76786;SDS011;65739;51.482;5.702;2023-03-12T15:11:29;27.40;;;6.07;;
76786;SDS011;65739;51.482;5.702;2023-03-12T15:14:01;28.77;;;4.63;;
76786;SDS011;65739;51.482;5.702;2023-03-12T15:19:04;32.03;;;5.78;;
76786;SDS011;65739;51.482;5.702;2023-03-12T15:21:31;28.38;;;4.90;;
76786;SDS011;65739;51.482;5.702;2023-03-12T15:23:58;25.95;;;4.88;;
76786;SDS011;65739;51.482;5.702;2023-03-12T15:28:56;30.63;;;5.25;;
76786;SDS011;65739;51.482;5.702;2023-03-12T15:31:24;27.10;;;4.38;;
76786;SDS011;65739;51.482;5.702;2023-03-12T15:34:01;25.45;;;4.07;;
76786;SDS011;65739;51.482;5.702;2023-03-12T15:36:31;23.20;;;4.27;;
76786;SDS011;65739;51.482;5.702;2023-03-12T15:38:59;22.67;;;3.83;;
76786;SDS011;65739;51.482;5.702;2023-03-12T15:41:35;25.83;;;4.78;;
76786;SDS011;65739;51.482;5.702;2023-03-12T15:44:28;20.20;;;3.60;;
76786;SDS011;65739;51.482;5.702;2023-03-12T15:47:09;28.75;;;4.78;;
76786;SDS011;65739;51.482;5.702;2023-03-12T15:49:43;24.80;;;4.13;;
76786;SDS011;65739;51.482;5.702;2023-03-12T15:54:59;21.98;;;4.50;;
76786;SDS011;65739;51.482;5.702;2023-03-12T15:57:46;31.45;;;4.03;;
76786;SDS011;65739;51.482;5.702;2023-03-12T16:00:20;22.83;;;4.10;;
76786;SDS011;65739;51.482;5.702;2023-03-12T16:07:59;23.38;;;4.05;;
76786;SDS011;65739;51.482;5.702;2023-03-12T16:10:26;20.10;;;3.83;;
76786;SDS011;65739;51.482;5.702;2023-03-12T16:12:59;20.77;;;3.65;;
76786;SDS011;65739;51.482;5.702;2023-03-12T16:15:31;26.23;;;4.10;;
76786;SDS011;65739;51.482;5.702;2023-03-12T16:18:00;23.17;;;4.57;;
76786;SDS011;65739;51.482;5.702;2023-03-12T16:20:25;28.80;;;4.95;;
76786;SDS011;65739;51.482;5.702;2023-03-12T16:22:51;28.98;;;5.15;;
76786;SDS011;65739;51.482;5.702;2023-03-12T16:25:17;33.17;;;4.85;;
76786;SDS011;65739;51.482;5.702;2023-03-12T16:27:48;25.40;;;4.28;;
76786;SDS011;65739;51.482;5.702;2023-03-12T16:30:18;22.25;;;4.00;;
76786;SDS011;65739;51.482;5.702;2023-03-12T16:32:47;28.63;;;4.60;;
76786;SDS011;65739;51.482;5.702;2023-03-12T16:35:14;26.00;;;4.95;;
76786;SDS011;65739;51.482;5.702;2023-03-12T16:37:42;23.13;;;4.28;;
76786;SDS011;65739;51.482;5.702;2023-03-12T16:40:07;25.23;;;4.45;;
76786;SDS011;65739;51.482;5.702;2023-03-12T16:42:34;27.02;;;3.92;;
76786;SDS011;65739;51.482;5.702;2023-03-12T16:45:00;24.88;;;4.30;;
76786;SDS011;65739;51.482;5.702;2023-03-12T16:47:26;24.95;;;6.50;;
76786;SDS011;65739;51.482;5.702;2023-03-12T16:49:52;19.55;;;4.22;;
76786;SDS011;65739;51.482;5.702;2023-03-12T16:52:18;26.17;;;3.88;;
76786;SDS011;65739;51.482;5.702;2023-03-12T16:54:48;16.02;;;3.92;;
76786;SDS011;65739;51.482;5.702;2023-03-12T16:57:24;25.48;;;4.45;;
76786;SDS011;65739;51.482;5.702;2023-03-12T16:59:56;26.40;;;4.28;;
76786;SDS011;65739;51.482;5.702;2023-03-12T17:02:22;23.35;;;4.18;;
76786;SDS011;65739;51.482;5.702;2023-03-12T17:04:47;26.98;;;3.88;;
76786;SDS011;65739;51.482;5.702;2023-03-12T17:07:15;27.65;;;4.65;;
76786;SDS011;65739;51.482;5.702;2023-03-12T17:09:41;31.48;;;4.53;;
76786;SDS011;65739;51.482;5.702;2023-03-12T17:12:10;28.45;;;4.38;;
76786;SDS011;65739;51.482;5.702;2023-03-12T17:14:42;20.73;;;4.43;;
76786;SDS011;65739;51.482;5.702;2023-03-12T17:17:08;28.02;;;5.50;;
76786;SDS011;65739;51.482;5.702;2023-03-12T17:19:34;22.58;;;5.43;;
76786;SDS011;65739;51.482;5.702;2023-03-12T17:21:59;27.85;;;4.35;;
76786;SDS011;65739;51.482;5.702;2023-03-12T17:24:25;22.88;;;3.60;;
76786;SDS011;65739;51.482;5.702;2023-03-12T17:26:52;21.33;;;4.22;;
76786;SDS011;65739;51.482;5.702;2023-03-12T17:29:17;26.35;;;4.50;;
76786;SDS011;65739;51.482;5.702;2023-03-12T17:31:43;23.92;;;3.95;;
76786;SDS011;65739;51.482;5.702;2023-03-12T17:34:08;20.20;;;4.00;;
76786;SDS011;65739;51.482;5.702;2023-03-12T17:36:35;24.75;;;4.78;;
76786;SDS011;65739;51.482;5.702;2023-03-12T17:39:01;23.88;;;4.40;;
76786;SDS011;65739;51.482;5.702;2023-03-12T17:41:27;26.98;;;4.13;;
76786;SDS011;65739;51.482;5.702;2023-03-12T17:43:54;30.25;;;4.32;;
76786;SDS011;65739;51.482;5.702;2023-03-12T17:46:22;26.17;;;4.25;;
76786;SDS011;65739;51.482;5.702;2023-03-12T17:48:48;22.83;;;3.75;;
76786;SDS011;65739;51.482;5.702;2023-03-12T17:51:14;27.90;;;4.35;;
76786;SDS011;65739;51.482;5.702;2023-03-12T17:53:40;21.73;;;3.92;;
76786;SDS011;65739;51.482;5.702;2023-03-12T17:56:06;34.70;;;4.32;;
76786;SDS011;65739;51.482;5.702;2023-03-12T17:58:31;25.70;;;4.95;;
76786;SDS011;65739;51.482;5.702;2023-03-12T18:00:57;28.85;;;4.55;;
76786;SDS011;65739;51.482;5.702;2023-03-12T18:03:23;31.00;;;5.45;;
76786;SDS011;65739;51.482;5.702;2023-03-12T18:05:49;27.48;;;5.10;;
76786;SDS011;65739;51.482;5.702;2023-03-12T18:08:15;27.20;;;4.95;;
76786;SDS011;65739;51.482;5.702;2023-03-12T18:10:40;35.55;;;7.10;;
76786;SDS011;65739;51.482;5.702;2023-03-12T18:13:06;34.08;;;5.60;;
76786;SDS011;65739;51.482;5.702;2023-03-12T18:15:31;27.90;;;5.18;;
76786;SDS011;65739;51.482;5.702;2023-03-12T18:17:57;23.98;;;4.60;;
76786;SDS011;65739;51.482;5.702;2023-03-12T18:20:23;27.92;;;4.68;;
76786;SDS011;65739;51.482;5.702;2023-03-12T18:22:49;30.88;;;4.60;;
76786;SDS011;65739;51.482;5.702;2023-03-12T18:25:15;34.25;;;4.30;;
76786;SDS011;65739;51.482;5.702;2023-03-12T18:27:40;29.95;;;5.35;;